Time;durP1;ratioP1;P1;durP2;ratioP2;P2;SDS_P1;SDS_P2;PMS_P1;PMS_P2;Temp;Humidity;BMP_temperature;BMP_pressure;BME280_temperature;BME280_humidity;BME280_pressure;Samples;Min_cycle;Max_cycle;Signal;HPM_P1;HPM_P2
2021/04/02 00:00:30;;;;;;;31.60;24.03;;;14.20;73.90;;;;;;4830233;29;20492;-80
2021/04/02 00:02:56;;;;;;;33.47;23.70;;;14.10;74.10;;;;;;4830215;29;20459;-79
2021/04/02 00:05:23;;;;;;;34.03;23.20;;;14.10;74.30;;;;;;4830971;29;20467;-79
2021/04/02 00:07:50;;;;;;;33.03;25.13;;;14.10;74.50;;;;;;4831001;29;20491;-79
2021/04/02 00:10:23;;;;;;;31.53;23.20;;;14.10;74.60;;;;;;4830939;29;20455;-80
2021/04/02 00:12:50;;;;;;;32.60;25.30;;;14.00;75.80;;;;;;4829962;29;20462;-80
2021/04/02 00:15:19;;;;;;;34.60;25.03;;;13.90;75.80;;;;;;4830342;29;20447;-79
2021/04/02 00:17:46;;;;;;;30.00;25.27;;;13.90;76.10;;;;;;4830167;29;20483;-78
2021/04/02 00:20:15;;;;;;;33.10;25.03;;;13.80;76.20;;;;;;4830137;29;20536;-79
2021/04/02 00:22:43;;;;;;;35.83;25.93;;;13.80;76.50;;;;;;4830217;29;20469;-79
2021/04/02 00:25:11;;;;;;;33.20;25.73;;;13.70;77.10;;;;;;4829930;29;20467;-79
2021/04/02 00:27:37;;;;;;;35.80;26.13;;;13.70;77.70;;;;;;4829877;29;20489;-79
2021/04/02 00:30:12;;;;;;;32.77;25.37;;;13.60;78.40;;;;;;4830390;29;20463;-78
2021/04/02 00:32:38;;;;;;;32.50;25.83;;;13.60;78.40;;;;;;4829127;29;20501;-79
2021/04/02 00:35:05;;;;;;;31.70;27.50;;;13.50;78.90;;;;;;4829958;29;20459;-79
2021/04/02 00:37:31;;;;;;;33.77;24.67;;;13.50;79.50;;;;;;4829744;29;20836;-79
2021/04/02 00:39:58;;;;;;;33.50;27.37;;;13.40;80.00;;;;;;4829494;29;20871;-79
2021/04/02 00:42:25;;;;;;;34.73;27.47;;;13.40;81.30;;;;;;4830031;29;20486;-79
2021/04/02 00:44:51;;;;;;;33.47;26.47;;;13.30;81.30;;;;;;4830354;29;20471;-79
2021/04/02 00:47:18;;;;;;;37.33;28.70;;;13.20;82.20;;;;;;4830260;29;21023;-79
2021/04/02 00:49:44;;;;;;;39.63;28.50;;;13.10;83.30;;;;;;4829992;29;20447;-79
2021/04/02 00:52:10;;;;;;;37.80;28.30;;;12.90;83.90;;;;;;4829578;29;20467;-78
2021/04/02 00:54:36;;;;;;;38.10;26.83;;;13.00;84.50;;;;;;4829290;29;20470;-79
2021/04/02 00:57:05;;;;;;;34.20;27.70;;;12.90;85.70;;;;;;4829956;29;20487;-79
2021/04/02 00:59:31;;;;;;;40.10;26.80;;;12.90;85.30;;;;;;4829589;29;20531;-79
2021/04/02 01:01:57;;;;;;;38.60;28.37;;;12.80;85.80;;;;;;4829597;29;20463;-79
2021/04/02 01:04:24;;;;;;;40.73;28.57;;;12.80;86.60;;;;;;4829928;29;20463;-79
2021/04/02 01:06:50;;;;;;;43.30;30.43;;;12.70;87.10;;;;;;4829442;29;20492;-79
2021/04/02 01:09:16;;;;;;;38.07;28.17;;;12.60;87.90;;;;;;4829225;29;20470;-79
2021/04/02 01:11:43;;;;;;;44.03;29.13;;;12.60;88.30;;;;;;4829507;29;20465;-79
2021/04/02 01:14:10;;;;;;;42.80;29.03;;;12.60;88.30;;;;;;4829462;29;20491;-79
2021/04/02 01:16:37;;;;;;;41.13;29.57;;;12.60;89.10;;;;;;4829614;29;20483;-79
2021/04/02 01:19:11;;;;;;;35.87;27.77;;;12.50;89.80;;;;;;4829222;29;20996;-79
2021/04/02 01:21:42;;;;;;;34.43;26.30;;;12.50;90.10;;;;;;4829047;29;20472;-79
2021/04/02 01:24:35;;;;;;;36.97;26.20;;;12.40;90.20;;;;;;4829623;29;20462;-79
2021/04/02 01:27:15;;;;;;;33.80;26.33;;;12.30;90.50;;;;;;4823277;29;20490;-79
2021/04/02 01:29:45;;;;;;;37.57;24.87;;;12.30;90.60;;;;;;4829371;29;20455;-79
2021/04/02 01:32:15;;;;;;;30.27;24.53;;;12.30;90.60;;;;;;4829421;29;20462;-79
2021/04/02 01:34:43;;;;;;;28.67;24.40;;;12.20;90.70;;;;;;4828954;29;20516;-79
2021/04/02 01:37:13;;;;;;;31.33;24.30;;;12.30;90.80;;;;;;4828922;29;20483;-79
2021/04/02 01:39:42;;;;;;;31.83;25.00;;;12.20;90.80;;;;;;4829693;29;20497;-79
2021/04/02 01:42:14;;;;;;;33.10;23.37;;;12.20;90.70;;;;;;4828911;29;20459;-79
2021/04/02 01:44:42;;;;;;;28.10;19.27;;;12.20;90.60;;;;;;4829233;29;20466;-79
2021/04/02 01:47:10;;;;;;;28.47;21.07;;;12.00;90.70;;;;;;4828898;29;21012;-79
2021/04/02 01:49:37;;;;;;;29.67;23.13;;;12.00;91.00;;;;;;4829526;29;20491;-79
2021/04/02 01:52:05;;;;;;;29.57;21.80;;;12.00;91.00;;;;;;4829020;29;20459;-78
2021/04/02 01:54:32;;;;;;;24.50;19.80;;;12.00;91.10;;;;;;4829059;29;20497;-79
2021/04/02 01:57:00;;;;;;;27.17;19.70;;;12.00;91.00;;;;;;4828867;29;21013;-79
2021/04/02 01:59:27;;;;;;;22.77;17.50;;;11.80;91.40;;;;;;4828737;29;21010;-79
2021/04/02 02:01:55;;;;;;;26.97;20.13;;;11.80;91.60;;;;;;4828384;29;21042;-79
2021/04/02 02:04:23;;;;;;;29.27;20.27;;;11.70;91.90;;;;;;4829058;29;20836;-79
2021/04/02 02:06:52;;;;;;;25.27;18.83;;;11.70;92.10;;;;;;4832965;29;20545;-78
2021/04/02 02:09:22;;;;;;;25.10;21.23;;;11.60;92.30;;;;;;4836763;29;20955;-78
2021/04/02 02:11:52;;;;;;;22.77;19.47;;;11.60;92.60;;;;;;4836050;29;20458;-78
2021/04/02 02:14:20;;;;;;;22.87;18.70;;;11.60;92.70;;;;;;4835633;29;20469;-79
2021/04/02 02:16:50;;;;;;;23.63;17.67;;;11.60;92.70;;;;;;4832604;29;20543;-79
2021/04/02 02:19:19;;;;;;;24.20;17.50;;;11.50;92.90;;;;;;4831964;29;20520;-79
2021/04/02 02:21:49;;;;;;;25.17;19.80;;;11.50;93.20;;;;;;4832413;29;20463;-79
2021/04/02 02:24:17;;;;;;;21.50;16.07;;;11.40;93.30;;;;;;4832497;29;20494;-79
2021/04/02 02:26:44;;;;;;;17.43;15.70;;;11.40;93.30;;;;;;4831844;29;20482;-80
2021/04/02 02:29:11;;;;;;;23.47;16.50;;;11.20;93.50;;;;;;4831700;29;20832;-79
2021/04/02 02:31:38;;;;;;;21.97;16.57;;;11.30;93.70;;;;;;4831702;29;20474;-79
2021/04/02 02:34:05;;;;;;;21.17;16.07;;;11.20;93.80;;;;;;4831576;29;20838;-79
2021/04/02 02:36:33;;;;;;;22.83;17.33;;;11.10;94.00;;;;;;4831496;29;20462;-79
2021/04/02 02:39:01;;;;;;;18.30;14.90;;;11.20;94.10;;;;;;4831923;29;20467;-79
2021/04/02 02:41:28;;;;;;;20.00;15.73;;;11.20;94.10;;;;;;4831598;29;20470;-79
2021/04/02 02:43:55;;;;;;;19.43;15.07;;;11.10;94.20;;;;;;4831600;29;20457;-79
2021/04/02 02:46:24;;;;;;;18.20;15.70;;;11.00;94.50;;;;;;4831900;29;20479;-79
2021/04/02 02:48:54;;;;;;;17.70;13.70;;;11.00;94.50;;;;;;4831794;29;20773;-79
2021/04/02 02:51:22;;;;;;;19.67;13.50;;;11.00;94.50;;;;;;4831276;29;20447;-78
2021/04/02 02:53:48;;;;;;;17.47;14.57;;;10.90;94.60;;;;;;4831539;29;20473;-79
2021/04/02 02:56:16;;;;;;;16.83;12.40;;;10.90;94.90;;;;;;4831569;29;20478;-79
2021/04/02 02:58:43;;;;;;;20.80;14.53;;;10.90;94.90;;;;;;4831295;29;20488;-79
2021/04/02 03:01:12;;;;;;;23.60;17.17;;;10.90;95.10;;;;;;4831466;29;20500;-79
2021/04/02 03:03:39;;;;;;;19.80;13.47;;;10.80;95.20;;;;;;4830846;29;20465;-79
2021/04/02 03:06:08;;;;;;;17.67;13.87;;;10.70;95.70;;;;;;4831416;29;20491;-79
2021/04/02 03:08:41;;;;;;;15.10;13.60;;;10.60;95.70;;;;;;4831301;29;20485;-79
2021/04/02 03:11:09;;;;;;;16.50;12.17;;;10.60;95.80;;;;;;4831858;29;20473;-79
2021/04/02 03:13:37;;;;;;;15.27;12.00;;;10.60;95.80;;;;;;4830774;29;20538;-78
2021/04/02 03:16:05;;;;;;;13.93;12.13;;;10.50;95.90;;;;;;4831340;29;20470;-79
2021/04/02 03:18:31;;;;;;;13.07;10.80;;;10.40;96.10;;;;;;4831338;29;20476;-79
2021/04/02 03:21:00;;;;;;;14.00;12.60;;;10.30;96.40;;;;;;4831708;29;20502;-79
2021/04/02 03:23:28;;;;;;;12.70;11.13;;;10.30;96.70;;;;;;4831087;29;20470;-79
2021/04/02 03:25:54;;;;;;;17.33;12.67;;;10.30;96.90;;;;;;4831812;29;20466;-79
2021/04/02 03:28:21;;;;;;;14.90;13.03;;;10.30;96.90;;;;;;4830852;29;20494;-79
2021/04/02 03:30:49;;;;;;;15.67;12.77;;;10.20;97.00;;;;;;4830614;29;20469;-81
2021/04/02 03:33:19;;;;;;;20.20;13.20;;;10.20;97.30;;;;;;4831096;29;20535;-81
2021/04/02 03:35:47;;;;;;;16.43;12.87;;;10.10;97.80;;;;;;4830773;29;20470;-80
2021/04/02 03:38:14;;;;;;;16.10;13.57;;;10.00;98.20;;;;;;4831287;29;20485;-81
2021/04/02 03:48:10;;;;;;;14.90;11.07;;;9.80;98.80;;;;;;4755324;30;20467;-78
2021/04/02 03:54:32;;;;;;;11.57;9.57;;;9.70;97.70;;;;;;4674423;30;20458;-78
2021/04/02 03:57:01;;;;;;;15.73;11.00;;;9.60;97.70;;;;;;4718761;30;20498;-79
2021/04/02 03:59:30;;;;;;;15.80;11.23;;;9.50;98.20;;;;;;4751179;30;20574;-79
2021/04/02 04:01:57;;;;;;;15.53;10.67;;;9.50;98.60;;;;;;4820917;29;20464;-79
2021/04/02 04:04:26;;;;;;;14.40;10.47;;;9.40;98.70;;;;;;4830653;29;20971;-79
2021/04/02 04:06:57;;;;;;;13.40;10.40;;;9.30;98.70;;;;;;4830538;29;20864;-81
2021/04/02 04:09:24;;;;;;;12.67;7.90;;;9.20;98.20;;;;;;4829753;29;20456;-81
2021/04/02 04:11:51;;;;;;;12.03;8.30;;;9.10;97.50;;;;;;4830415;29;20460;-81
2021/04/02 04:14:20;;;;;;;9.27;7.90;;;9.10;97.30;;;;;;4830339;29;20475;-81
2021/04/02 04:16:48;;;;;;;13.15;6.78;;;9.00;97.10;;;;;;4830337;29;20479;-81
2021/04/02 04:19:16;;;;;;;10.70;8.47;;;8.90;97.10;;;;;;4830243;29;20212;-80
2021/04/02 04:21:45;;;;;;;11.10;7.93;;;8.90;96.80;;;;;;4830244;29;20843;-80
2021/04/02 04:24:14;;;;;;;7.70;6.95;;;8.70;96.60;;;;;;4830190;29;20218;-80
2021/04/02 04:26:42;;;;;;;8.57;5.85;;;8.70;96.70;;;;;;4830105;29;20252;-80
2021/04/02 04:29:14;;;;;;;10.63;6.75;;;8.70;96.20;;;;;;4830012;29;20218;-80
2021/04/02 04:31:42;;;;;;;9.00;6.63;;;8.70;96.10;;;;;;4830056;29;20223;-79
2021/04/02 04:34:08;;;;;;;10.32;6.18;;;8.50;95.90;;;;;;4830598;29;20673;-79
2021/04/02 04:36:35;;;;;;;6.30;5.70;;;8.40;95.60;;;;;;4830534;29;20614;-79
2021/04/02 04:39:05;;;;;;;7.22;5.35;;;8.40;95.50;;;;;;4830491;29;20222;-79
2021/04/02 04:41:33;;;;;;;6.40;5.20;;;8.30;95.20;;;;;;4829920;29;20593;-81
2021/04/02 04:44:01;;;;;;;4.55;4.00;;;8.30;94.90;;;;;;4830240;29;20227;-79
2021/04/02 04:46:28;;;;;;;6.72;4.18;;;8.20;94.30;;;;;;4832423;29;20214;-79
2021/04/02 04:48:56;;;;;;;7.68;4.47;;;8.20;94.30;;;;;;4833343;29;20232;-79
2021/04/02 04:51:27;;;;;;;5.07;4.57;;;8.20;93.90;;;;;;4833995;29;20218;-79
2021/04/02 04:53:55;;;;;;;4.40;3.22;;;8.20;93.70;;;;;;4831331;29;20216;-80
2021/04/02 04:56:25;;;;;;;3.90;3.60;;;8.20;93.30;;;;;;4834837;29;20215;-79
2021/04/02 04:58:53;;;;;;;4.15;3.58;;;8.00;93.10;;;;;;4835737;29;20214;-79
2021/04/02 05:01:22;;;;;;;3.85;3.40;;;8.10;93.10;;;;;;4835755;29;20246;-79
2021/04/02 05:03:51;;;;;;;6.57;5.05;;;8.10;92.70;;;;;;4833508;29;20223;-80
2021/04/02 05:06:21;;;;;;;4.15;3.55;;;8.10;92.70;;;;;;4830623;29;20219;-80
2021/04/02 05:08:49;;;;;;;5.88;4.47;;;8.20;92.60;;;;;;4829953;29;20244;-80
2021/04/02 05:11:18;;;;;;;5.75;3.22;;;8.10;92.20;;;;;;4829971;29;20240;-80
2021/04/02 05:13:47;;;;;;;3.85;3.45;;;8.10;92.20;;;;;;4830411;29;20217;-80
2021/04/02 05:16:13;;;;;;;3.90;3.38;;;8.20;92.20;;;;;;4829817;29;20229;-80
2021/04/02 05:18:40;;;;;;;3.03;2.60;;;8.10;91.90;;;;;;4829739;29;20225;-80
2021/04/02 05:21:08;;;;;;;4.63;3.13;;;8.00;91.70;;;;;;4830071;29;20233;-80
2021/04/02 05:23:34;;;;;;;4.15;3.35;;;8.00;91.80;;;;;;4829993;29;20221;-80
2021/04/02 05:26:00;;;;;;;4.20;3.90;;;8.00;91.90;;;;;;4829840;29;20214;-80
2021/04/02 05:28:27;;;;;;;5.93;3.00;;;8.00;91.80;;;;;;4830427;29;20231;-80
2021/04/02 05:30:53;;;;;;;7.15;3.53;;;7.90;91.90;;;;;;4830070;29;20318;-81
2021/04/02 05:33:20;;;;;;;3.50;3.20;;;7.90;91.90;;;;;;4829085;29;20222;-79
2021/04/02 05:35:47;;;;;;;5.53;2.75;;;7.80;91.70;;;;;;4829909;29;20233;-80
2021/04/02 05:38:14;;;;;;;3.00;2.80;;;7.70;91.70;;;;;;4829973;29;20306;-81
2021/04/02 05:40:40;;;;;;;6.43;3.75;;;7.60;91.90;;;;;;4831464;29;20237;-80
2021/04/02 05:43:15;;;;;;;2.72;2.53;;;7.60;92.00;;;;;;4832594;29;20213;-80
2021/04/02 05:45:41;;;;;;;3.28;2.95;;;7.60;92.10;;;;;;4833133;29;20213;-80
2021/04/02 05:48:10;;;;;;;3.28;2.97;;;7.60;92.00;;;;;;4832858;29;20264;-80
2021/04/02 05:50:38;;;;;;;4.63;4.18;;;7.60;92.20;;;;;;4833051;29;20209;-80
2021/04/02 05:53:06;;;;;;;5.88;2.90;;;7.70;92.10;;;;;;4833009;29;20220;-80
2021/04/02 05:55:37;;;;;;;2.88;2.50;;;7.70;92.40;;;;;;4833244;29;20222;-80
2021/04/02 05:58:05;;;;;;;5.22;3.30;;;7.90;92.40;;;;;;4832790;29;20297;-80
2021/04/02 06:00:32;;;;;;;3.97;3.60;;;7.80;92.20;;;;;;4834852;29;20233;-80
2021/04/02 06:02:58;;;;;;;4.10;3.33;;;7.80;92.10;;;;;;4836084;29;20219;-80
2021/04/02 06:05:26;;;;;;;3.40;3.10;;;7.80;92.00;;;;;;4836343;29;20238;-80
2021/04/02 06:07:53;;;;;;;3.88;3.03;;;7.90;92.40;;;;;;4836072;29;20240;-80
2021/04/02 06:10:19;;;;;;;4.65;3.50;;;8.00;92.30;;;;;;4835583;29;20206;-80
2021/04/02 06:12:46;;;;;;;8.07;4.10;;;8.00;92.10;;;;;;4835185;29;20218;-80
2021/04/02 06:15:14;;;;;;;4.38;3.70;;;8.00;91.80;;;;;;4835851;29;20285;-79
2021/04/02 06:18:04;;;;;;;3.92;3.45;;;8.20;91.80;;;;;;4835442;29;20238;-80
2021/04/02 06:20:32;;;;;;;5.22;3.72;;;8.10;91.60;;;;;;4834756;29;20242;-80
2021/04/02 06:23:10;;;;;;;3.45;3.08;;;8.10;91.70;;;;;;4834762;29;20249;-80
2021/04/02 06:25:40;;;;;;;6.68;3.63;;;8.20;91.70;;;;;;4835341;29;20319;-80
2021/04/02 06:28:11;;;;;;;3.70;3.10;;;8.30;91.90;;;;;;4834677;29;20245;-80
2021/04/02 06:30:41;;;;;;;6.32;4.35;;;8.30;91.60;;;;;;4834723;29;20282;-79
2021/04/02 06:33:08;;;;;;;5.57;3.80;;;8.30;91.60;;;;;;4834642;29;20214;-79
2021/04/02 06:35:37;;;;;;;5.05;4.50;;;8.40;91.70;;;;;;4834734;29;20677;-80
2021/04/02 06:38:04;;;;;;;4.20;3.80;;;8.40;91.70;;;;;;4835290;29;20242;-79
2021/04/02 06:40:30;;;;;;;5.15;4.05;;;8.50;91.70;;;;;;4834659;29;20229;-79
2021/04/02 06:42:59;;;;;;;7.00;3.95;;;8.40;91.50;;;;;;4834773;29;20214;-79
2021/04/02 06:45:28;;;;;;;4.82;4.10;;;8.40;91.80;;;;;;4835755;29;20215;-79
2021/04/02 06:48:08;;;;;;;6.50;4.72;;;8.40;91.90;;;;;;4834294;29;20234;-80
2021/04/02 06:50:35;;;;;;;4.40;4.00;;;8.50;92.10;;;;;;4834365;29;20213;-80
2021/04/02 06:53:03;;;;;;;9.10;5.80;;;8.60;92.20;;;;;;4834274;29;21045;-79
2021/04/02 06:55:31;;;;;;;6.72;4.80;;;8.60;92.10;;;;;;4834740;29;20247;-79
2021/04/02 06:58:05;;;;;;;12.13;7.57;;;8.60;91.60;;;;;;4834280;29;20393;-79
2021/04/02 07:00:35;;;;;;;5.18;4.78;;;8.60;91.80;;;;;;4834429;29;20231;-79
2021/04/02 07:03:03;;;;;;;5.70;4.35;;;8.70;91.90;;;;;;4834337;29;20210;-80
2021/04/02 07:05:30;;;;;;;6.45;4.97;;;8.70;91.80;;;;;;4834420;29;20216;-80
2021/04/02 07:08:00;;;;;;;7.87;6.47;;;8.80;91.60;;;;;;4834544;29;20237;-79
2021/04/02 07:10:28;;;;;;;5.30;4.80;;;9.00;91.70;;;;;;4834124;29;20456;-80
2021/04/02 07:12:55;;;;;;;5.40;4.90;;;8.90;91.40;;;;;;4832979;29;21010;-80
2021/04/02 07:15:21;;;;;;;3.90;3.60;;;8.80;91.50;;;;;;4833094;29;20471;-80
2021/04/02 07:17:49;;;;;;;6.38;4.95;;;8.70;91.60;;;;;;4833554;29;20291;-79
2021/04/02 07:20:16;;;;;;;4.30;3.90;;;8.60;91.70;;;;;;4832873;29;20234;-79
2021/04/02 07:22:43;;;;;;;5.80;4.50;;;8.60;92.00;;;;;;4832576;29;20252;-80
2021/04/02 07:25:11;;;;;;;4.40;4.00;;;8.50;92.40;;;;;;4833123;29;20994;-80
2021/04/02 07:27:38;;;;;;;5.35;4.85;;;8.60;92.60;;;;;;4832976;29;20231;-80
2021/04/02 07:30:08;;;;;;;5.00;4.50;;;8.70;92.60;;;;;;4832627;29;20210;-80
2021/04/02 07:32:37;;;;;;;4.90;4.07;;;8.80;92.30;;;;;;4832260;29;20605;-80
2021/04/02 07:35:06;;;;;;;5.85;5.38;;;8.90;92.00;;;;;;4833207;29;20222;-80
2021/04/02 07:37:36;;;;;;;8.15;4.80;;;8.90;91.90;;;;;;4832624;29;20238;-79
2021/04/02 07:40:05;;;;;;;6.47;5.28;;;8.90;91.70;;;;;;4833487;29;20230;-78
2021/04/02 07:42:31;;;;;;;5.80;5.20;;;9.00;91.60;;;;;;4833543;29;20207;-78
2021/04/02 07:44:59;;;;;;;5.18;4.68;;;9.10;91.40;;;;;;4838845;29;20237;-77
2021/04/02 07:47:25;;;;;;;8.90;5.37;;;9.10;91.30;;;;;;4844629;29;20316;-78
2021/04/02 07:49:58;;;;;;;7.07;6.40;;;9.20;91.20;;;;;;4839479;29;20454;-77
2021/04/02 07:52:38;;;;;;;8.40;5.87;;;9.20;91.00;;;;;;4838067;29;20456;-78
2021/04/02 07:55:09;;;;;;;7.07;6.10;;;9.20;91.20;;;;;;4830595;29;21107;-78
2021/04/02 07:57:54;;;;;;;7.37;6.40;;;9.20;91.10;;;;;;4835015;29;20234;-78
2021/04/02 08:00:23;;;;;;;6.40;5.80;;;9.30;91.30;;;;;;4833281;29;20492;-77
2021/04/02 08:03:12;;;;;;;7.00;6.13;;;9.40;91.00;;;;;;4833581;29;20213;-78
2021/04/02 08:05:44;;;;;;;7.00;6.30;;;9.40;91.20;;;;;;4831754;29;20496;-79
2021/04/02 08:08:15;;;;;;;8.47;7.03;;;9.50;91.10;;;;;;4832596;29;20475;-77
2021/04/02 08:11:00;;;;;;;7.83;6.87;;;9.70;91.10;;;;;;4832521;29;20453;-78
2021/04/02 08:13:26;;;;;;;8.20;6.70;;;9.70;91.00;;;;;;4831451;29;21048;-78
2021/04/02 08:15:53;;;;;;;7.70;6.53;;;9.70;91.10;;;;;;4832195;29;20457;-78
2021/04/02 08:18:20;;;;;;;7.97;7.00;;;9.70;91.10;;;;;;4833186;29;20466;-78
2021/04/02 08:20:54;;;;;;;9.30;8.20;;;9.80;90.80;;;;;;4833453;29;20523;-78
2021/04/02 08:23:22;;;;;;;8.07;7.03;;;9.80;90.90;;;;;;4831452;29;20477;-79
2021/04/02 08:25:54;;;;;;;7.60;6.90;;;9.90;90.70;;;;;;4833382;29;20489;-78
2021/04/02 08:28:24;;;;;;;8.30;7.40;;;10.10;90.20;;;;;;4832899;29;20515;-79
2021/04/02 08:30:51;;;;;;;10.97;7.90;;;10.00;89.60;;;;;;4832355;29;20955;-78
2021/04/02 08:33:18;;;;;;;7.87;7.03;;;10.00;89.90;;;;;;4832838;29;20830;-78
2021/04/02 08:35:46;;;;;;;9.57;7.50;;;10.00;89.80;;;;;;4832479;29;20453;-78
2021/04/02 08:38:13;;;;;;;7.83;7.07;;;10.00;89.90;;;;;;4833427;29;20489;-78
2021/04/02 08:40:40;;;;;;;7.43;6.73;;;10.00;90.00;;;;;;4832838;29;21099;-78
2021/04/02 08:43:08;;;;;;;10.03;8.90;;;10.10;89.70;;;;;;4833393;29;20478;-78
2021/04/02 08:45:35;;;;;;;9.07;7.83;;;10.10;89.80;;;;;;4837053;29;20470;-79
2021/04/02 08:48:01;;;;;;;8.87;7.33;;;10.20;89.70;;;;;;4835690;29;20485;-79
2021/04/02 08:50:28;;;;;;;10.67;8.63;;;10.30;89.30;;;;;;4835578;29;20941;-79
2021/04/02 08:53:04;;;;;;;8.50;7.70;;;10.30;89.50;;;;;;4834596;29;20480;-79
2021/04/02 08:55:30;;;;;;;7.87;7.17;;;10.30;89.40;;;;;;4816935;29;20465;-81
2021/04/02 08:57:57;;;;;;;9.20;7.13;;;10.40;88.80;;;;;;4817281;29;20498;-82
2021/04/02 09:00:25;;;;;;;11.90;8.20;;;10.50;89.10;;;;;;4816449;29;20498;-81
2021/04/02 09:02:52;;;;;;;8.43;7.53;;;10.40;88.50;;;;;;4815111;29;20463;-82
2021/04/02 09:05:19;;;;;;;10.30;8.50;;;10.40;88.40;;;;;;4817366;29;20558;-81
2021/04/02 09:07:45;;;;;;;9.53;8.73;;;10.30;89.20;;;;;;4818054;29;20500;-82
2021/04/02 09:10:14;;;;;;;9.17;8.27;;;10.50;89.70;;;;;;4819507;29;20466;-81
2021/04/02 09:12:46;;;;;;;10.33;8.40;;;10.60;89.20;;;;;;4819130;29;20472;-80
2021/04/02 09:15:21;;;;;;;9.57;8.57;;;10.60;88.90;;;;;;4821223;29;20475;-81
2021/04/02 09:17:47;;;;;;;9.30;7.83;;;10.60;88.40;;;;;;4821995;29;20500;-81
2021/04/02 09:20:15;;;;;;;9.27;8.37;;;10.70;88.00;;;;;;4826045;29;20528;-78
2021/04/02 09:22:43;;;;;;;11.80;7.97;;;10.80;88.30;;;;;;4828369;29;20447;-79
2021/04/02 09:25:15;;;;;;;9.47;8.43;;;10.90;88.50;;;;;;4822958;29;20463;-83
2021/04/02 09:27:41;;;;;;;11.50;9.17;;;10.90;87.40;;;;;;4820623;29;20491;-82
2021/04/02 09:30:09;;;;;;;10.10;8.17;;;11.10;87.80;;;;;;4822196;29;20495;-82
2021/04/02 09:32:36;;;;;;;17.10;10.00;;;11.20;86.20;;;;;;4821930;29;20481;-82
2021/04/02 09:35:06;;;;;;;12.03;9.23;;;11.20;86.20;;;;;;4822368;29;20528;-80
2021/04/02 09:37:34;;;;;;;10.30;9.13;;;11.30;85.90;;;;;;4821794;29;20479;-82
2021/04/02 09:40:04;;;;;;;8.63;7.73;;;11.30;86.20;;;;;;4822170;29;20487;-82
2021/04/02 09:42:33;;;;;;;11.53;9.50;;;11.50;86.40;;;;;;4821680;29;20476;-81
2021/04/02 09:45:03;;;;;;;16.63;9.13;;;11.60;84.70;;;;;;4821668;29;20463;-82
2021/04/02 09:47:38;;;;;;;11.30;10.23;;;11.80;84.60;;;;;;4825664;29;20535;-77
2021/04/02 09:50:07;;;;;;;10.33;9.23;;;12.20;84.10;;;;;;4828932;29;20454;-79
2021/04/02 09:52:33;;;;;;;10.47;9.57;;;12.40;82.40;;;;;;4828786;29;20542;-79
2021/04/02 09:55:00;;;;;;;12.53;8.90;;;12.70;82.10;;;;;;4826113;29;20498;-81
2021/04/02 09:57:26;;;;;;;9.70;8.77;;;13.00;80.80;;;;;;4822213;29;20493;-82
2021/04/02 09:59:52;;;;;;;9.03;7.97;;;13.30;80.70;;;;;;4822129;29;20467;-82
2021/04/02 10:02:18;;;;;;;9.97;8.90;;;13.70;79.90;;;;;;4821259;29;20460;-82
2021/04/02 10:04:45;;;;;;;12.30;9.57;;;13.80;76.40;;;;;;4821519;29;20467;-82
2021/04/02 10:07:12;;;;;;;9.00;8.10;;;13.80;76.20;;;;;;4821843;29;20486;-80
2021/04/02 10:09:38;;;;;;;10.23;8.80;;;14.00;74.60;;;;;;4822016;29;20516;-82
2021/04/02 10:12:05;;;;;;;11.60;9.40;;;13.90;73.70;;;;;;4822421;29;20453;-82
2021/04/02 10:14:31;;;;;;;12.40;9.20;;;14.00;74.40;;;;;;4814483;29;20464;-82
2021/04/02 10:16:57;;;;;;;11.23;9.60;;;14.10;73.40;;;;;;4806503;29;20869;-79
2021/04/02 10:19:24;;;;;;;9.87;8.87;;;14.20;73.50;;;;;;4806703;29;20884;-80
2021/04/02 10:21:50;;;;;;;8.87;7.97;;;13.90;73.20;;;;;;4805893;29;21011;-80
2021/04/02 10:24:17;;;;;;;9.20;8.30;;;13.90;73.50;;;;;;4806456;29;20468;-80
2021/04/02 10:26:45;;;;;;;9.27;8.43;;;13.60;71.30;;;;;;4808130;29;21060;-80
2021/04/02 10:29:12;;;;;;;11.30;9.37;;;13.50;73.30;;;;;;4810830;29;21043;-79
2021/04/02 10:31:38;;;;;;;8.87;8.00;;;13.40;73.20;;;;;;4810659;29;20469;-79
2021/04/02 10:34:04;;;;;;;10.60;9.57;;;13.60;74.40;;;;;;4811151;29;20472;-78
2021/04/02 10:36:31;;;;;;;11.03;10.10;;;13.50;74.10;;;;;;4813311;29;20464;-78
2021/04/02 10:38:57;;;;;;;9.33;8.43;;;13.50;72.90;;;;;;4813348;29;20472;-78
2021/04/02 10:41:24;;;;;;;9.07;8.37;;;13.60;71.90;;;;;;4812099;29;21014;-79
2021/04/02 10:43:51;;;;;;;9.27;8.37;;;13.50;71.20;;;;;;4809728;29;20456;-80
2021/04/02 10:46:17;;;;;;;11.80;8.37;;;13.50;70.40;;;;;;4809182;29;20457;-81
2021/04/02 10:48:44;;;;;;;9.27;8.37;;;13.70;73.00;;;;;;4809416;29;20467;-80
2021/04/02 10:51:10;;;;;;;10.07;8.80;;;13.80;71.90;;;;;;4809463;29;20469;-80
2021/04/02 10:53:37;;;;;;;9.80;9.00;;;14.10;72.40;;;;;;4809257;29;20466;-80
2021/04/02 10:56:05;;;;;;;10.17;9.17;;;14.20;69.40;;;;;;4809400;29;20469;-80
2021/04/02 10:58:33;;;;;;;8.83;8.00;;;14.30;69.40;;;;;;4809438;29;20552;-81
2021/04/02 11:00:59;;;;;;;10.30;9.47;;;14.60;69.90;;;;;;4809592;29;20497;-80
2021/04/02 11:03:26;;;;;;;10.10;9.10;;;14.70;68.00;;;;;;4809511;29;20483;-84
2021/04/02 11:05:52;;;;;;;9.50;8.63;;;15.10;67.70;;;;;;4809184;29;20469;-83
2021/04/02 11:31:53;;;;;;;;;;;;;;;;;;;;;
2021/04/02 11:41:12;;;;;;;;;;;;;;;;;;;;;
2021/04/02 11:43:43;;;;;;;9.07;7.97;;;19.10;53.40;;;;;;4778969;29;20220;-83
2021/04/02 11:46:10;;;;;;;8.83;8.03;;;19.30;52.20;;;;;;4810870;29;20800;-83
2021/04/02 14:31:52;;;;;;;4.73;4.43;;;18.70;41.60;;;;;;4187780;27;20505;-85
2021/04/02 14:34:49;;;;;;;5.37;4.97;;;18.80;41.90;;;;;;4829401;29;20438;-84
2021/04/02 14:37:31;;;;;;;;;;;;;;;;;;;;;
2021/04/02 14:47:23;;;;;;;5.30;4.90;;;16.10;45.50;;;;;;4686431;30;20495;-83
2021/04/02 18:05:37;;;;;;;7.20;5.70;;;10.80;63.20;;;;;;4585653;31;20474;-86
2021/04/02 19:44:47;;;;;;;6.00;4.32;;;8.40;64.80;;;;;;4637914;30;20328;-84
2021/04/02 19:47:25;;;;;;;4.43;4.03;;;8.40;64.80;;;;;;4669960;30;20682;-85
2021/04/02 19:49:51;;;;;;;4.40;4.05;;;8.40;65.10;;;;;;4738388;29;20219;-85
2021/04/02 19:52:18;;;;;;;4.97;4.53;;;8.50;64.90;;;;;;4813702;29;20208;-84
2021/04/02 19:54:44;;;;;;;4.97;4.25;;;8.40;64.80;;;;;;4814005;29;20245;-84
2021/04/02 19:57:10;;;;;;;4.35;3.90;;;8.30;65.30;;;;;;4813866;29;20245;-83
2021/04/02 19:59:36;;;;;;;4.85;4.45;;;8.20;65.70;;;;;;4813947;29;20221;-84
2021/04/02 20:02:05;;;;;;;5.65;4.78;;;8.20;66.10;;;;;;4813501;29;20230;-85
2021/04/02 20:04:34;;;;;;;5.40;4.90;;;8.30;66.50;;;;;;4815030;29;20223;-84
2021/04/02 20:07:00;;;;;;;4.10;3.80;;;8.20;66.10;;;;;;4817121;29;20292;-83
2021/04/02 20:09:27;;;;;;;5.32;4.47;;;8.10;66.20;;;;;;4816521;29;20222;-84
2021/04/02 20:11:55;;;;;;;5.60;4.57;;;8.00;66.80;;;;;;4817039;29;20207;-84
2021/04/02 20:14:23;;;;;;;4.90;4.38;;;8.00;67.20;;;;;;4815903;29;20219;-84
2021/04/02 20:16:49;;;;;;;7.65;4.57;;;8.10;67.10;;;;;;4816175;29;20230;-84
2021/04/02 20:19:15;;;;;;;4.78;4.38;;;8.20;67.40;;;;;;4815483;29;20210;-83
2021/04/02 20:21:43;;;;;;;5.55;5.05;;;8.30;67.50;;;;;;4815494;29;20287;-83
2021/04/02 20:24:11;;;;;;;4.88;4.47;;;8.40;67.30;;;;;;4815208;29;20210;-84
2021/04/02 20:26:37;;;;;;;4.82;4.43;;;8.50;67.10;;;;;;4807930;29;20246;-84
2021/04/02 20:29:04;;;;;;;5.40;4.70;;;8.50;66.90;;;;;;4815923;29;20215;-83
2021/04/02 20:31:30;;;;;;;5.38;4.43;;;8.50;66.90;;;;;;4816447;29;20223;-84
2021/04/02 20:33:56;;;;;;;4.93;4.53;;;8.50;67.10;;;;;;4816754;29;20247;-83
2021/04/02 20:36:22;;;;;;;5.10;4.75;;;8.50;67.00;;;;;;4817316;29;20232;-84
2021/04/02 20:38:52;;;;;;;6.15;5.10;;;8.50;67.40;;;;;;4816342;29;20318;-84
2021/04/02 20:41:19;;;;;;;5.80;5.13;;;8.50;67.80;;;;;;4816132;29;20605;-84
2021/04/02 20:43:45;;;;;;;6.20;5.60;;;8.30;68.10;;;;;;4816401;29;20230;-84
2021/04/02 20:46:11;;;;;;;10.77;6.03;;;8.00;68.90;;;;;;4816278;29;20228;-84
2021/04/02 20:48:38;;;;;;;6.60;5.32;;;8.00;70.00;;;;;;4814711;29;20242;-84
2021/04/02 20:51:04;;;;;;;5.80;4.45;;;7.60;71.70;;;;;;4815953;29;20210;-84
2021/04/02 20:53:31;;;;;;;6.55;5.53;;;7.40;74.10;;;;;;4816281;29;20218;-83
2021/04/02 20:55:58;;;;;;;6.80;6.05;;;7.40;76.80;;;;;;4817466;29;20211;-84
2021/04/02 20:58:24;;;;;;;6.18;5.68;;;7.40;78.30;;;;;;4817719;29;20234;-84
2021/04/02 21:00:51;;;;;;;8.20;6.63;;;7.30;79.60;;;;;;4816876;29;20256;-83
2021/04/02 21:03:17;;;;;;;8.63;7.05;;;7.30;81.20;;;;;;4818314;29;20246;-83
2021/04/02 21:05:43;;;;;;;13.43;9.00;;;7.20;82.20;;;;;;4817710;29;20215;-83
2021/04/02 21:08:09;;;;;;;11.27;7.55;;;7.20;83.50;;;;;;4816229;29;20729;-84
2021/04/02 21:10:36;;;;;;;9.63;7.18;;;7.10;84.70;;;;;;4814280;29;20226;-82
2021/04/02 21:13:03;;;;;;;7.60;6.18;;;7.00;86.20;;;;;;4815044;29;20219;-85
2021/04/02 21:15:31;;;;;;;9.20;7.15;;;7.00;87.40;;;;;;4830030;29;20210;-84
2021/04/02 21:17:58;;;;;;;10.55;8.70;;;6.80;89.20;;;;;;4826263;29;20249;-86